DAJAN BIAR-CYQX
Flight info
| Callsign | DAJAN |
|---|---|
| Flight time | N/A |
| Altitude | 34000 |
| Route | ASKUR1D ASKUR DCT EL DCT H6230 DCT H6134 DCT H5940 DCT H5745 DCT 5550N DCT TUDEP/N0476F340 DCT KEKDA |
| Aircraft | CL60/M-SBDE1E2E3FGHIJ1J4J5J7M3RWXYZ/LB1V1D1 |
Departure
| Time | 2026-05-08 08:38 |
|---|---|
| Airport | Akureyri International Airport (BIAR) |
Arrival
| Time | N/A |
|---|---|
| Airport | Gander International Airport (CYQX) |
| Time | Latitude | Longitude | Altitude | Speed | Heading |
|---|---|---|---|---|---|
| 2026-05-08 08:11 | 65.65426 | -18.07498 | -52 ft | 0 kts | 6° |
| 2026-05-08 08:32 | 65.65427 | -18.07498 | -50 ft | 0 kts | 6° |
| 2026-05-08 08:32 | 65.65431 | -18.07495 | -50 ft | 2 kts | 18° |
| 2026-05-08 08:33 | 65.65459 | -18.07454 | -50 ft | 6 kts | 41° |
| 2026-05-08 08:33 | 65.65476 | -18.07378 | -50 ft | 4 kts | 83° |
| 2026-05-08 08:33 | 65.65482 | -18.07270 | -50 ft | 9 kts | 84° |
| 2026-05-08 08:33 | 65.65537 | -18.07176 | -51 ft | 12 kts | 355° |
| 2026-05-08 08:34 | 65.65630 | -18.07194 | -51 ft | 14 kts | 355° |
| 2026-05-08 08:34 | 65.65738 | -18.07217 | -50 ft | 17 kts | 355° |
| 2026-05-08 08:34 | 65.65861 | -18.07241 | -50 ft | 18 kts | 356° |
| 2026-05-08 08:34 | 65.65991 | -18.07265 | -50 ft | 19 kts | 355° |
| 2026-05-08 08:35 | 65.66130 | -18.07288 | -50 ft | 20 kts | 356° |
| 2026-05-08 08:35 | 65.66272 | -18.07315 | -50 ft | 21 kts | 355° |
| 2026-05-08 08:35 | 65.66421 | -18.07342 | -50 ft | 21 kts | 356° |
| 2026-05-08 08:35 | 65.66574 | -18.07374 | -50 ft | 22 kts | 355° |
| 2026-05-08 08:36 | 65.66732 | -18.07406 | -49 ft | 23 kts | 356° |
| 2026-05-08 08:36 | 65.66832 | -18.07472 | -51 ft | 6 kts | 351° |
| 2026-05-08 08:36 | 65.66840 | -18.07412 | -51 ft | 3 kts | 175° |
| 2026-05-08 08:36 | 65.66824 | -18.07415 | -51 ft | 0 kts | 175° |
| 2026-05-08 08:37 | 65.66712 | -18.07393 | -51 ft | 52 kts | 175° |
| 2026-05-08 08:37 | 65.66050 | -18.07266 | -52 ft | 136 kts | 176° |
| 2026-05-08 08:37 | 65.64931 | -18.07040 | 167 ft | 178 kts | 175° |
| 2026-05-08 08:38 | 65.63655 | -18.06760 | 909 ft | 192 kts | 174° |
| 2026-05-08 08:38 | 65.62309 | -18.06516 | 1791 ft | 200 kts | 175° |
| 2026-05-08 08:38 | 65.60889 | -18.06476 | 2647 ft | 214 kts | 185° |
| 2026-05-08 08:38 | 65.59442 | -18.07193 | 3730 ft | 219 kts | 198° |
| 2026-05-08 08:39 | 65.57964 | -18.08424 | 4592 ft | 236 kts | 199° |
| 2026-05-08 08:39 | 65.56373 | -18.09765 | 5480 ft | 251 kts | 199° |
| 2026-05-08 08:39 | 65.54734 | -18.11141 | 6539 ft | 260 kts | 199° |
| 2026-05-08 08:39 | 65.53019 | -18.12578 | 7676 ft | 266 kts | 200° |
| 2026-05-08 08:40 | 65.51269 | -18.14042 | 8796 ft | 271 kts | 200° |
| 2026-05-08 08:40 | 65.49496 | -18.15524 | 9867 ft | 277 kts | 200° |
| 2026-05-08 08:40 | 65.47768 | -18.17498 | 10862 ft | 283 kts | 216° |
| 2026-05-08 08:40 | 65.46098 | -18.20510 | 11186 ft | 316 kts | 220° |
| 2026-05-08 08:41 | 65.44333 | -18.23820 | 11832 ft | 333 kts | 220° |
| 2026-05-08 08:41 | 65.42472 | -18.27280 | 12756 ft | 341 kts | 220° |
| 2026-05-08 08:41 | 65.40610 | -18.30732 | 13711 ft | 346 kts | 220° |
| 2026-05-08 08:41 | 65.38689 | -18.34281 | 14641 ft | 351 kts | 220° |
| 2026-05-08 08:42 | 65.36761 | -18.37834 | 15519 ft | 356 kts | 220° |
| 2026-05-08 08:42 | 65.34783 | -18.41470 | 16356 ft | 361 kts | 220° |
| 2026-05-08 08:42 | 65.32773 | -18.45156 | 17146 ft | 366 kts | 220° |
| 2026-05-08 08:42 | 65.30755 | -18.48847 | 17915 ft | 371 kts | 221° |
| 2026-05-08 08:43 | 65.28697 | -18.52603 | 18670 ft | 375 kts | 221° |
| 2026-05-08 08:43 | 65.26617 | -18.56389 | 19410 ft | 379 kts | 221° |
| 2026-05-08 08:43 | 65.24511 | -18.60215 | 20121 ft | 383 kts | 221° |
| 2026-05-08 08:43 | 65.22411 | -18.64021 | 20759 ft | 387 kts | 221° |
| 2026-05-08 08:44 | 65.20243 | -18.67966 | 21347 ft | 392 kts | 223° |
| 2026-05-08 08:44 | 65.18353 | -18.72606 | 21918 ft | 391 kts | 236° |
| 2026-05-08 08:44 | 65.16657 | -18.77671 | 22469 ft | 395 kts | 236° |
| 2026-05-08 08:44 | 65.14944 | -18.82744 | 23012 ft | 400 kts | 236° |
| 2026-05-08 08:45 | 65.13188 | -18.87927 | 23561 ft | 404 kts | 236° |
| 2026-05-08 08:45 | 65.11435 | -18.93088 | 24077 ft | 408 kts | 237° |
| 2026-05-08 08:45 | 65.09636 | -18.98369 | 24596 ft | 412 kts | 237° |
| 2026-05-08 08:45 | 65.07831 | -19.03654 | 25081 ft | 416 kts | 237° |
| 2026-05-08 08:46 | 65.05982 | -19.09055 | 25519 ft | 420 kts | 237° |
| 2026-05-08 08:46 | 65.04126 | -19.14461 | 25973 ft | 424 kts | 237° |
| 2026-05-08 08:46 | 65.02273 | -19.19842 | 26425 ft | 427 kts | 238° |
| 2026-05-08 08:46 | 65.00388 | -19.25304 | 26843 ft | 430 kts | 238° |
| 2026-05-08 08:47 | 64.98508 | -19.30737 | 27240 ft | 434 kts | 238° |
| 2026-05-08 08:47 | 64.96583 | -19.36283 | 27661 ft | 437 kts | 238° |
| 2026-05-08 08:47 | 64.94673 | -19.41773 | 27997 ft | 441 kts | 238° |
| 2026-05-08 08:47 | 64.92725 | -19.47362 | 28324 ft | 445 kts | 238° |
| 2026-05-08 08:48 | 64.90732 | -19.53060 | 28671 ft | 448 kts | 239° |
| 2026-05-08 08:48 | 64.88741 | -19.58733 | 29083 ft | 449 kts | 239° |
| 2026-05-08 08:48 | 64.86774 | -19.64323 | 29471 ft | 450 kts | 239° |
| 2026-05-08 08:48 | 64.84773 | -19.69997 | 29833 ft | 451 kts | 239° |
| 2026-05-08 08:49 | 64.82760 | -19.75690 | 30198 ft | 452 kts | 239° |
| 2026-05-08 08:49 | 64.80752 | -19.81352 | 30615 ft | 450 kts | 239° |
| 2026-05-08 08:49 | 64.78751 | -19.86976 | 31022 ft | 449 kts | 239° |
| 2026-05-08 08:49 | 64.76772 | -19.92524 | 31417 ft | 446 kts | 239° |
| 2026-05-08 08:50 | 64.74781 | -19.98094 | 31759 ft | 444 kts | 239° |
| 2026-05-08 08:50 | 64.72791 | -20.03652 | 32027 ft | 445 kts | 238° |
| 2026-05-08 08:50 | 64.70805 | -20.09186 | 32295 ft | 445 kts | 239° |
| 2026-05-08 08:50 | 64.68779 | -20.14816 | 32548 ft | 445 kts | 238° |
| 2026-05-08 08:51 | 64.66788 | -20.20329 | 32848 ft | 444 kts | 238° |
| 2026-05-08 08:51 | 64.64764 | -20.25926 | 33084 ft | 444 kts | 238° |
| 2026-05-08 08:51 | 64.62765 | -20.31442 | 33342 ft | 444 kts | 238° |
| 2026-05-08 08:51 | 64.60780 | -20.36897 | 33620 ft | 442 kts | 238° |
| 2026-05-08 08:52 | 64.58742 | -20.42490 | 33872 ft | 442 kts | 237° |
| 2026-05-08 08:52 | 64.56766 | -20.47899 | 34106 ft | 442 kts | 237° |
| 2026-05-08 08:52 | 64.52687 | -20.59043 | 34172 ft | 456 kts | 237° |
| 2026-05-08 08:53 | 64.48465 | -20.70518 | 34165 ft | 470 kts | 236° |
| 2026-05-08 08:53 | 64.44126 | -20.82240 | 34140 ft | 484 kts | 236° |
| 2026-05-08 08:54 | 64.39687 | -20.94161 | 34180 ft | 493 kts | 236° |
| 2026-05-08 08:54 | 64.35181 | -21.06193 | 34196 ft | 500 kts | 236° |
| 2026-05-08 08:55 | 64.30611 | -21.18322 | 34217 ft | 503 kts | 236° |
| 2026-05-08 08:55 | 64.26011 | -21.30463 | 34201 ft | 504 kts | 236° |
| 2026-05-08 08:56 | 64.21385 | -21.42606 | 34200 ft | 504 kts | 236° |
| 2026-05-08 08:56 | 64.16755 | -21.54693 | 34206 ft | 504 kts | 237° |
| 2026-05-08 08:57 | 64.12131 | -21.66703 | 34212 ft | 502 kts | 236° |
| 2026-05-08 08:57 | 64.08151 | -21.79559 | 34229 ft | 487 kts | 250° |
| 2026-05-08 08:58 | 64.05557 | -21.93542 | 34247 ft | 476 kts | 259° |
| 2026-05-08 08:58 | 64.03342 | -22.07749 | 34258 ft | 477 kts | 259° |
| 2026-05-08 08:59 | 64.01099 | -22.21999 | 34258 ft | 476 kts | 259° |
| 2026-05-08 08:59 | 63.98849 | -22.36179 | 34261 ft | 476 kts | 259° |
| 2026-05-08 09:00 | 63.96576 | -22.50397 | 34272 ft | 477 kts | 260° |
| 2026-05-08 09:00 | 63.94297 | -22.64538 | 34278 ft | 477 kts | 260° |
| 2026-05-08 09:01 | 63.91983 | -22.78782 | 34263 ft | 476 kts | 259° |
| 2026-05-08 09:01 | 63.89687 | -22.92812 | 34269 ft | 475 kts | 259° |
| 2026-05-08 09:02 | 63.87376 | -23.06828 | 34270 ft | 474 kts | 259° |
| 2026-05-08 09:02 | 63.85050 | -23.20836 | 34280 ft | 475 kts | 259° |
| 2026-05-08 09:03 | 63.82711 | -23.34814 | 34283 ft | 475 kts | 259° |
| 2026-05-08 09:03 | 63.80356 | -23.48778 | 34289 ft | 473 kts | 259° |
| 2026-05-08 09:04 | 63.78015 | -23.62562 | 34292 ft | 472 kts | 259° |
| 2026-05-08 09:04 | 63.75639 | -23.76456 | 34297 ft | 472 kts | 258° |
| 2026-05-08 09:05 | 63.73264 | -23.90235 | 34299 ft | 472 kts | 258° |
| 2026-05-08 09:05 | 63.70860 | -24.04086 | 34299 ft | 472 kts | 258° |
| 2026-05-08 09:06 | 63.68464 | -24.17793 | 34300 ft | 471 kts | 258° |
| 2026-05-08 09:06 | 63.66056 | -24.31465 | 34296 ft | 470 kts | 258° |
| 2026-05-08 09:07 | 63.63632 | -24.45140 | 34289 ft | 470 kts | 258° |
| 2026-05-08 09:07 | 63.61208 | -24.58719 | 34286 ft | 470 kts | 258° |
| 2026-05-08 09:08 | 63.58773 | -24.72260 | 34286 ft | 470 kts | 257° |
| 2026-05-08 09:08 | 63.56308 | -24.85873 | 34290 ft | 469 kts | 257° |
| 2026-05-08 09:09 | 63.53858 | -24.99309 | 34287 ft | 469 kts | 257° |
| 2026-05-08 09:09 | 63.51379 | -25.12815 | 34285 ft | 468 kts | 257° |
| 2026-05-08 09:10 | 63.48911 | -25.26169 | 34290 ft | 469 kts | 257° |
| 2026-05-08 09:10 | 63.46408 | -25.39619 | 34291 ft | 468 kts | 256° |
| 2026-05-08 09:11 | 63.43887 | -25.53076 | 34290 ft | 468 kts | 256° |
| 2026-05-08 09:11 | 63.41378 | -25.66381 | 34291 ft | 467 kts | 255° |
| 2026-05-08 09:12 | 63.38822 | -25.79837 | 34291 ft | 467 kts | 255° |
| 2026-05-08 09:12 | 63.36273 | -25.93174 | 34295 ft | 467 kts | 255° |
| 2026-05-08 09:13 | 63.33728 | -26.06399 | 34294 ft | 466 kts | 255° |
| 2026-05-08 09:13 | 63.31174 | -26.19588 | 34293 ft | 466 kts | 255° |
| 2026-05-08 09:14 | 63.28616 | -26.32707 | 34300 ft | 466 kts | 255° |
| 2026-05-08 09:14 | 63.26014 | -26.45973 | 34309 ft | 466 kts | 255° |
| 2026-05-08 09:15 | 63.23423 | -26.59091 | 34316 ft | 466 kts | 255° |
| 2026-05-08 09:15 | 63.20799 | -26.72289 | 34324 ft | 466 kts | 253° |
| 2026-05-08 09:16 | 63.18178 | -26.85390 | 34331 ft | 466 kts | 253° |
| 2026-05-08 09:16 | 63.15535 | -26.98517 | 34326 ft | 466 kts | 253° |
| 2026-05-08 09:17 | 63.12888 | -27.11579 | 34333 ft | 465 kts | 253° |
| 2026-05-08 09:17 | 63.10235 | -27.24585 | 34334 ft | 465 kts | 253° |
| 2026-05-08 09:18 | 63.07584 | -27.37500 | 34330 ft | 464 kts | 253° |
| 2026-05-08 09:18 | 63.04902 | -27.50486 | 34327 ft | 464 kts | 253° |
| 2026-05-08 09:19 | 63.02217 | -27.63398 | 34333 ft | 463 kts | 253° |
| 2026-05-08 09:19 | 62.99536 | -27.76220 | 34335 ft | 463 kts | 252° |
| 2026-05-08 09:20 | 62.96838 | -27.89049 | 34334 ft | 463 kts | 252° |
| 2026-05-08 09:20 | 62.94119 | -28.01897 | 34338 ft | 463 kts | 252° |
| 2026-05-08 09:21 | 62.91399 | -28.14666 | 34341 ft | 463 kts | 252° |
| 2026-05-08 09:23 | 62.81792 | -28.59159 | 34340 ft | 462 kts | 253° |
| 2026-05-08 09:23 | 62.79011 | -28.71870 | 34341 ft | 463 kts | 252° |
| 2026-05-08 09:24 | 62.76240 | -28.84456 | 34330 ft | 463 kts | 252° |
| 2026-05-08 09:24 | 62.73434 | -28.97124 | 34332 ft | 464 kts | 252° |
| 2026-05-08 09:25 | 62.70636 | -29.09682 | 34337 ft | 463 kts | 252° |
| 2026-05-08 09:25 | 62.67811 | -29.22282 | 34339 ft | 464 kts | 252° |
| 2026-05-08 09:26 | 62.64967 | -29.34895 | 34343 ft | 463 kts | 252° |
| 2026-05-08 09:26 | 62.62128 | -29.47404 | 34346 ft | 463 kts | 252° |
| 2026-05-08 09:27 | 62.59283 | -29.59864 | 34347 ft | 464 kts | 252° |
| 2026-05-08 09:27 | 62.56412 | -29.72375 | 34345 ft | 464 kts | 251° |
| 2026-05-08 09:28 | 62.53524 | -29.84884 | 34350 ft | 465 kts | 251° |
| 2026-05-08 09:28 | 62.50625 | -29.97370 | 34356 ft | 465 kts | 252° |
| 2026-05-08 09:29 | 62.47749 | -30.09888 | 34348 ft | 465 kts | 252° |
| 2026-05-08 09:29 | 62.44877 | -30.22404 | 34361 ft | 465 kts | 252° |
| 2026-05-08 09:30 | 62.42012 | -30.34819 | 34365 ft | 465 kts | 252° |
| 2026-05-08 09:30 | 62.39118 | -30.47282 | 34362 ft | 465 kts | 252° |
| 2026-05-08 09:31 | 62.36217 | -30.59708 | 34368 ft | 464 kts | 252° |
| 2026-05-08 09:31 | 62.33297 | -30.72142 | 34369 ft | 465 kts | 251° |
| 2026-05-08 09:32 | 62.30345 | -30.84642 | 34369 ft | 466 kts | 251° |
| 2026-05-08 09:32 | 62.27401 | -30.97034 | 34375 ft | 466 kts | 251° |
| 2026-05-08 09:33 | 62.24458 | -31.09347 | 34359 ft | 467 kts | 251° |
| 2026-05-08 09:33 | 62.21500 | -31.21649 | 34354 ft | 466 kts | 251° |
| 2026-05-08 09:34 | 62.18519 | -31.33981 | 34352 ft | 466 kts | 251° |
| 2026-05-08 09:34 | 62.15528 | -31.46285 | 34353 ft | 466 kts | 251° |
| 2026-05-08 09:35 | 62.12530 | -31.58553 | 34355 ft | 466 kts | 251° |
| 2026-05-08 09:35 | 62.09518 | -31.70806 | 34357 ft | 466 kts | 250° |
| 2026-05-08 09:36 | 62.06487 | -31.83072 | 34363 ft | 466 kts | 249° |
| 2026-05-08 09:36 | 62.03459 | -31.95255 | 34365 ft | 466 kts | 249° |
| 2026-05-08 09:37 | 62.00414 | -32.07439 | 34353 ft | 467 kts | 249° |
| 2026-05-08 09:37 | 61.97345 | -32.19651 | 34354 ft | 466 kts | 249° |
| 2026-05-08 09:38 | 61.94278 | -32.31790 | 34354 ft | 466 kts | 249° |
| 2026-05-08 09:38 | 61.91222 | -32.43812 | 34355 ft | 465 kts | 249° |
| 2026-05-08 09:39 | 61.88150 | -32.55838 | 34354 ft | 464 kts | 249° |
| 2026-05-08 09:39 | 61.85078 | -32.67798 | 34347 ft | 464 kts | 248° |
| 2026-05-08 09:40 | 61.81970 | -32.79834 | 34350 ft | 464 kts | 248° |
| 2026-05-08 09:40 | 61.78854 | -32.91833 | 34343 ft | 464 kts | 248° |
| 2026-05-08 09:41 | 61.75751 | -33.03722 | 34350 ft | 463 kts | 248° |
| 2026-05-08 09:41 | 61.72645 | -33.15559 | 34353 ft | 463 kts | 248° |
| 2026-05-08 09:42 | 61.69532 | -33.27361 | 34353 ft | 463 kts | 248° |
| 2026-05-08 09:42 | 61.66402 | -33.39160 | 34351 ft | 462 kts | 248° |
| 2026-05-08 09:43 | 61.63275 | -33.50892 | 34351 ft | 462 kts | 248° |
| 2026-05-08 09:43 | 61.60122 | -33.62656 | 34359 ft | 462 kts | 248° |
| 2026-05-08 09:44 | 61.56948 | -33.74440 | 34368 ft | 463 kts | 246° |
| 2026-05-08 09:44 | 61.53749 | -33.86253 | 34369 ft | 464 kts | 246° |
| 2026-05-08 09:45 | 61.50568 | -33.97937 | 34349 ft | 464 kts | 246° |
| 2026-05-08 09:45 | 61.47212 | -34.09562 | 34336 ft | 465 kts | 244° |
| 2026-05-08 09:46 | 61.43858 | -34.20972 | 34353 ft | 464 kts | 244° |
| 2026-05-08 09:46 | 61.40448 | -34.32513 | 34349 ft | 464 kts | 244° |
| 2026-05-08 09:47 | 61.37056 | -34.43937 | 34353 ft | 463 kts | 244° |
| 2026-05-08 09:47 | 61.33677 | -34.55260 | 34359 ft | 463 kts | 244° |
| 2026-05-08 09:48 | 61.30272 | -34.66617 | 34351 ft | 462 kts | 243° |
| 2026-05-08 09:48 | 61.26881 | -34.77870 | 34345 ft | 462 kts | 243° |
| 2026-05-08 09:49 | 61.23449 | -34.89206 | 34353 ft | 462 kts | 243° |
| 2026-05-08 09:49 | 61.20046 | -35.00390 | 34343 ft | 462 kts | 243° |
| 2026-05-08 09:50 | 61.16616 | -35.11609 | 34352 ft | 462 kts | 243° |
| 2026-05-08 09:50 | 61.13176 | -35.22806 | 34349 ft | 462 kts | 243° |
| 2026-05-08 09:51 | 61.09733 | -35.33955 | 34346 ft | 462 kts | 243° |
| 2026-05-08 09:51 | 61.06255 | -35.45166 | 34347 ft | 462 kts | 243° |
| 2026-05-08 09:52 | 61.02798 | -35.56256 | 34341 ft | 461 kts | 243° |
| 2026-05-08 09:52 | 60.99336 | -35.67308 | 34348 ft | 461 kts | 242° |
| 2026-05-08 09:53 | 60.95837 | -35.78423 | 34340 ft | 462 kts | 242° |
| 2026-05-08 09:53 | 60.92355 | -35.89428 | 34413 ft | 451 kts | 241° |
| 2026-05-08 09:53 | 60.90684 | -35.94673 | 34538 ft | 431 kts | 242° |
| 2026-05-08 09:54 | 60.89057 | -35.99775 | 34670 ft | 419 kts | 242° |
| 2026-05-08 09:54 | 60.87488 | -36.04695 | 34800 ft | 413 kts | 242° |
| 2026-05-08 09:54 | 60.85929 | -36.09573 | 34926 ft | 408 kts | 242° |
| 2026-05-08 09:54 | 60.84367 | -36.14454 | 35045 ft | 405 kts | 242° |
| 2026-05-08 09:55 | 60.82824 | -36.19268 | 35168 ft | 404 kts | 242° |
| 2026-05-08 09:55 | 60.81295 | -36.24028 | 35295 ft | 403 kts | 242° |
| 2026-05-08 09:55 | 60.79727 | -36.28900 | 35421 ft | 402 kts | 242° |
| 2026-05-08 09:55 | 60.78202 | -36.33628 | 35543 ft | 402 kts | 242° |
| 2026-05-08 09:56 | 60.76651 | -36.38426 | 35664 ft | 402 kts | 242° |
| 2026-05-08 09:56 | 60.75092 | -36.43236 | 35791 ft | 401 kts | 242° |
| 2026-05-08 09:56 | 60.73549 | -36.47988 | 35916 ft | 401 kts | 242° |
| 2026-05-08 09:56 | 60.71995 | -36.52764 | 36043 ft | 400 kts | 242° |
| 2026-05-08 09:57 | 60.68917 | -36.62195 | 36297 ft | 399 kts | 242° |
| 2026-05-08 09:57 | 60.65790 | -36.71749 | 36323 ft | 412 kts | 241° |
| 2026-05-08 09:58 | 60.62573 | -36.81536 | 36309 ft | 424 kts | 241° |
| 2026-05-08 09:58 | 60.59247 | -36.91604 | 36307 ft | 435 kts | 240° |
| 2026-05-08 09:59 | 60.55799 | -37.01992 | 36310 ft | 444 kts | 240° |
| 2026-05-08 09:59 | 60.52325 | -37.12409 | 36304 ft | 452 kts | 240° |
| 2026-05-08 10:00 | 60.48771 | -37.23013 | 36307 ft | 456 kts | 240° |
| 2026-05-08 10:00 | 60.45199 | -37.33622 | 36303 ft | 456 kts | 240° |
| 2026-05-08 10:01 | 60.41629 | -37.44173 | 36297 ft | 455 kts | 240° |
| 2026-05-08 10:01 | 60.38077 | -37.54628 | 36299 ft | 453 kts | 240° |
| 2026-05-08 10:02 | 60.34514 | -37.65068 | 36290 ft | 452 kts | 240° |
| 2026-05-08 10:02 | 60.30933 | -37.75515 | 36295 ft | 453 kts | 240° |
| 2026-05-08 10:03 | 60.27337 | -37.85961 | 36294 ft | 454 kts | 240° |
| 2026-05-08 10:03 | 60.23734 | -37.96378 | 36292 ft | 454 kts | 239° |
| 2026-05-08 10:04 | 60.20111 | -38.06807 | 36294 ft | 453 kts | 239° |
| 2026-05-08 10:04 | 60.16492 | -38.17177 | 36292 ft | 452 kts | 239° |
| 2026-05-08 10:05 | 60.12871 | -38.27508 | 36291 ft | 451 kts | 239° |
| 2026-05-08 10:05 | 60.09276 | -38.37722 | 36281 ft | 451 kts | 239° |
| 2026-05-08 10:06 | 60.05659 | -38.47951 | 36278 ft | 449 kts | 239° |
| 2026-05-08 10:06 | 60.02023 | -38.58189 | 36278 ft | 448 kts | 239° |
| 2026-05-08 10:07 | 59.98392 | -38.68370 | 36269 ft | 447 kts | 239° |
| 2026-05-08 10:07 | 59.94784 | -38.78442 | 36270 ft | 447 kts | 238° |
| 2026-05-08 10:08 | 59.91139 | -38.88572 | 36265 ft | 446 kts | 239° |
| 2026-05-08 10:08 | 59.87500 | -38.98646 | 36267 ft | 445 kts | 239° |
| 2026-05-08 10:09 | 59.83888 | -39.08598 | 36274 ft | 444 kts | 238° |
| 2026-05-08 10:09 | 59.80293 | -39.18464 | 36271 ft | 443 kts | 238° |
| 2026-05-08 10:10 | 59.76680 | -39.28338 | 36259 ft | 444 kts | 238° |
| 2026-05-08 10:10 | 59.73061 | -39.38186 | 36267 ft | 444 kts | 238° |
| 2026-05-08 10:11 | 59.69435 | -39.48012 | 36259 ft | 444 kts | 238° |
| 2026-05-08 10:11 | 59.65784 | -39.57865 | 36252 ft | 444 kts | 238° |
| 2026-05-08 10:12 | 59.62120 | -39.67711 | 36250 ft | 444 kts | 237° |
| 2026-05-08 10:12 | 59.58454 | -39.77520 | 36246 ft | 444 kts | 237° |
| 2026-05-08 10:13 | 59.54796 | -39.87269 | 36241 ft | 444 kts | 237° |
| 2026-05-08 10:13 | 59.51071 | -39.97152 | 36236 ft | 444 kts | 237° |
| 2026-05-08 10:14 | 59.47462 | -40.06997 | 36234 ft | 442 kts | 239° |
| 2026-05-08 10:14 | 59.43920 | -40.16822 | 36231 ft | 442 kts | 238° |
| 2026-05-08 10:15 | 59.40374 | -40.26613 | 36237 ft | 441 kts | 238° |
| 2026-05-08 10:15 | 59.36820 | -40.36382 | 36225 ft | 441 kts | 239° |